sensor_id;sensor_type;location;lat;lon;timestamp;P1;durP1;ratioP1;P2;durP2;ratioP2
19280;SDS011;9774;52.034;5.342;2023-07-13T00:00:46;3.17;;;0.95;;
19280;SDS011;9774;52.034;5.342;2023-07-13T00:03:14;3.40;;;1.23;;
19280;SDS011;9774;52.034;5.342;2023-07-13T00:05:42;5.65;;;1.38;;
19280;SDS011;9774;52.034;5.342;2023-07-13T00:08:09;3.83;;;0.60;;
19280;SDS011;9774;52.034;5.342;2023-07-13T00:10:40;1.90;;;0.75;;
19280;SDS011;9774;52.034;5.342;2023-07-13T00:13:07;3.33;;;0.90;;
19280;SDS011;9774;52.034;5.342;2023-07-13T00:15:35;3.25;;;0.90;;
19280;SDS011;9774;52.034;5.342;2023-07-13T00:18:03;4.32;;;0.77;;
19280;SDS011;9774;52.034;5.342;2023-07-13T00:20:32;1.67;;;0.52;;
19280;SDS011;9774;52.034;5.342;2023-07-13T00:22:59;4.55;;;1.23;;
19280;SDS011;9774;52.034;5.342;2023-07-13T00:25:27;2.55;;;0.88;;
19280;SDS011;9774;52.034;5.342;2023-07-13T00:27:54;3.60;;;0.60;;
19280;SDS011;9774;52.034;5.342;2023-07-13T00:30:22;3.85;;;0.80;;
19280;SDS011;9774;52.034;5.342;2023-07-13T00:32:50;7.10;;;0.70;;
19280;SDS011;9774;52.034;5.342;2023-07-13T00:35:18;2.38;;;0.77;;
19280;SDS011;9774;52.034;5.342;2023-07-13T00:37:47;5.00;;;0.90;;
19280;SDS011;9774;52.034;5.342;2023-07-13T00:40:15;3.00;;;0.90;;
19280;SDS011;9774;52.034;5.342;2023-07-13T00:42:43;2.33;;;0.90;;
19280;SDS011;9774;52.034;5.342;2023-07-13T00:48:10;2.58;;;0.80;;
19280;SDS011;9774;52.034;5.342;2023-07-13T00:50:39;2.22;;;0.80;;
19280;SDS011;9774;52.034;5.342;2023-07-13T00:53:08;2.60;;;0.70;;
19280;SDS011;9774;52.034;5.342;2023-07-13T00:55:36;4.32;;;0.82;;
19280;SDS011;9774;52.034;5.342;2023-07-13T00:58:04;3.80;;;1.40;;
19280;SDS011;9774;52.034;5.342;2023-07-13T01:00:32;4.28;;;1.08;;
19280;SDS011;9774;52.034;5.342;2023-07-13T01:03:03;3.35;;;1.13;;
19280;SDS011;9774;52.034;5.342;2023-07-13T01:05:32;1.70;;;0.60;;
19280;SDS011;9774;52.034;5.342;2023-07-13T01:08:00;0.85;;;0.60;;
19280;SDS011;9774;52.034;5.342;2023-07-13T01:10:32;2.13;;;0.75;;
19280;SDS011;9774;52.034;5.342;2023-07-13T01:13:04;4.85;;;0.85;;
19280;SDS011;9774;52.034;5.342;2023-07-13T01:15:36;4.63;;;0.80;;
19280;SDS011;9774;52.034;5.342;2023-07-13T01:18:05;1.17;;;0.60;;
19280;SDS011;9774;52.034;5.342;2023-07-13T01:20:34;3.33;;;0.90;;
19280;SDS011;9774;52.034;5.342;2023-07-13T01:23:04;3.47;;;0.88;;
19280;SDS011;9774;52.034;5.342;2023-07-13T01:25:32;2.88;;;0.90;;
19280;SDS011;9774;52.034;5.342;2023-07-13T01:28:01;4.88;;;1.38;;
19280;SDS011;9774;52.034;5.342;2023-07-13T01:30:29;3.50;;;0.75;;
19280;SDS011;9774;52.034;5.342;2023-07-13T01:32:57;2.33;;;0.93;;
19280;SDS011;9774;52.034;5.342;2023-07-13T01:35:24;2.67;;;1.20;;
19280;SDS011;9774;52.034;5.342;2023-07-13T01:37:53;3.70;;;1.30;;
19280;SDS011;9774;52.034;5.342;2023-07-13T01:40:23;4.25;;;0.90;;
19280;SDS011;9774;52.034;5.342;2023-07-13T01:42:50;4.28;;;0.93;;
19280;SDS011;9774;52.034;5.342;2023-07-13T01:45:17;2.42;;;0.85;;
19280;SDS011;9774;52.034;5.342;2023-07-13T01:47:45;3.72;;;1.60;;
19280;SDS011;9774;52.034;5.342;2023-07-13T01:50:12;4.75;;;0.90;;
19280;SDS011;9774;52.034;5.342;2023-07-13T01:52:39;1.38;;;0.73;;
19280;SDS011;9774;52.034;5.342;2023-07-13T01:55:07;1.92;;;0.82;;
19280;SDS011;9774;52.034;5.342;2023-07-13T01:57:36;3.97;;;1.55;;
19280;SDS011;9774;52.034;5.342;2023-07-13T02:00:04;3.10;;;1.05;;
19280;SDS011;9774;52.034;5.342;2023-07-13T02:02:33;7.25;;;1.40;;
19280;SDS011;9774;52.034;5.342;2023-07-13T02:05:00;2.80;;;0.90;;
19280;SDS011;9774;52.034;5.342;2023-07-13T02:07:27;1.95;;;1.00;;
19280;SDS011;9774;52.034;5.342;2023-07-13T02:09:56;3.80;;;1.02;;
19280;SDS011;9774;52.034;5.342;2023-07-13T02:12:23;5.28;;;1.50;;
19280;SDS011;9774;52.034;5.342;2023-07-13T02:14:52;3.35;;;0.90;;
19280;SDS011;9774;52.034;5.342;2023-07-13T02:17:20;5.10;;;0.85;;
19280;SDS011;9774;52.034;5.342;2023-07-13T02:19:48;3.22;;;1.00;;
19280;SDS011;9774;52.034;5.342;2023-07-13T02:22:15;1.40;;;0.93;;
19280;SDS011;9774;52.034;5.342;2023-07-13T02:24:42;2.08;;;0.82;;
19280;SDS011;9774;52.034;5.342;2023-07-13T02:27:10;3.40;;;1.30;;
19280;SDS011;9774;52.034;5.342;2023-07-13T02:29:37;4.85;;;1.35;;
19280;SDS011;9774;52.034;5.342;2023-07-13T02:32:06;2.70;;;0.90;;
19280;SDS011;9774;52.034;5.342;2023-07-13T02:34:34;3.55;;;1.13;;
19280;SDS011;9774;52.034;5.342;2023-07-13T02:37:01;4.65;;;1.00;;
19280;SDS011;9774;52.034;5.342;2023-07-13T02:39:29;4.13;;;1.33;;
19280;SDS011;9774;52.034;5.342;2023-07-13T02:41:58;2.70;;;1.13;;
19280;SDS011;9774;52.034;5.342;2023-07-13T02:44:25;2.55;;;1.00;;
19280;SDS011;9774;52.034;5.342;2023-07-13T02:46:53;3.05;;;1.13;;
19280;SDS011;9774;52.034;5.342;2023-07-13T02:49:21;5.63;;;1.58;;
19280;SDS011;9774;52.034;5.342;2023-07-13T02:51:48;4.70;;;1.30;;
19280;SDS011;9774;52.034;5.342;2023-07-13T02:54:17;4.47;;;1.60;;
19280;SDS011;9774;52.034;5.342;2023-07-13T02:56:44;5.28;;;1.10;;
19280;SDS011;9774;52.034;5.342;2023-07-13T02:59:12;6.00;;;1.40;;
19280;SDS011;9774;52.034;5.342;2023-07-13T03:01:39;4.50;;;1.50;;
19280;SDS011;9774;52.034;5.342;2023-07-13T03:04:06;5.68;;;0.95;;
19280;SDS011;9774;52.034;5.342;2023-07-13T03:06:35;4.07;;;1.58;;
19280;SDS011;9774;52.034;5.342;2023-07-13T03:09:02;2.92;;;1.20;;
19280;SDS011;9774;52.034;5.342;2023-07-13T03:11:30;4.95;;;1.25;;
19280;SDS011;9774;52.034;5.342;2023-07-13T03:13:57;3.90;;;1.10;;
19280;SDS011;9774;52.034;5.342;2023-07-13T03:16:24;6.05;;;1.60;;
19280;SDS011;9774;52.034;5.342;2023-07-13T03:18:51;4.18;;;1.15;;
19280;SDS011;9774;52.034;5.342;2023-07-13T03:21:19;6.20;;;1.60;;
19280;SDS011;9774;52.034;5.342;2023-07-13T03:23:47;3.33;;;1.33;;
19280;SDS011;9774;52.034;5.342;2023-07-13T03:26:16;6.13;;;1.30;;
19280;SDS011;9774;52.034;5.342;2023-07-13T03:28:44;2.03;;;1.02;;
19280;SDS011;9774;52.034;5.342;2023-07-13T03:31:13;4.03;;;1.20;;
19280;SDS011;9774;52.034;5.342;2023-07-13T03:33:42;7.05;;;1.40;;
19280;SDS011;9774;52.034;5.342;2023-07-13T03:36:12;4.88;;;1.73;;
19280;SDS011;9774;52.034;5.342;2023-07-13T03:38:43;5.63;;;1.30;;
19280;SDS011;9774;52.034;5.342;2023-07-13T03:41:12;3.63;;;1.17;;
19280;SDS011;9774;52.034;5.342;2023-07-13T03:43:40;5.85;;;1.40;;
19280;SDS011;9774;52.034;5.342;2023-07-13T03:46:07;7.03;;;1.38;;
19280;SDS011;9774;52.034;5.342;2023-07-13T03:48:35;3.92;;;1.25;;
19280;SDS011;9774;52.034;5.342;2023-07-13T03:51:04;3.85;;;1.30;;
19280;SDS011;9774;52.034;5.342;2023-07-13T03:53:32;4.78;;;1.30;;
19280;SDS011;9774;52.034;5.342;2023-07-13T03:55:59;3.55;;;1.27;;
19280;SDS011;9774;52.034;5.342;2023-07-13T03:58:29;6.28;;;1.95;;
19280;SDS011;9774;52.034;5.342;2023-07-13T04:00:58;3.35;;;1.20;;
19280;SDS011;9774;52.034;5.342;2023-07-13T04:03:27;3.55;;;1.55;;
19280;SDS011;9774;52.034;5.342;2023-07-13T04:05:58;5.00;;;2.13;;
19280;SDS011;9774;52.034;5.342;2023-07-13T04:08:26;3.95;;;1.42;;
19280;SDS011;9774;52.034;5.342;2023-07-13T04:10:53;3.40;;;1.40;;
19280;SDS011;9774;52.034;5.342;2023-07-13T04:13:21;7.22;;;1.58;;
19280;SDS011;9774;52.034;5.342;2023-07-13T04:15:50;5.80;;;1.83;;
19280;SDS011;9774;52.034;5.342;2023-07-13T04:18:18;4.10;;;1.48;;
19280;SDS011;9774;52.034;5.342;2023-07-13T04:20:46;3.78;;;1.73;;
19280;SDS011;9774;52.034;5.342;2023-07-13T04:23:14;3.72;;;1.58;;
19280;SDS011;9774;52.034;5.342;2023-07-13T04:25:43;5.38;;;1.55;;
19280;SDS011;9774;52.034;5.342;2023-07-13T04:28:10;3.67;;;1.77;;
19280;SDS011;9774;52.034;5.342;2023-07-13T04:30:38;3.08;;;1.70;;
19280;SDS011;9774;52.034;5.342;2023-07-13T04:33:06;5.03;;;1.70;;
19280;SDS011;9774;52.034;5.342;2023-07-13T04:35:34;7.05;;;1.90;;
19280;SDS011;9774;52.034;5.342;2023-07-13T04:38:02;5.25;;;1.42;;
19280;SDS011;9774;52.034;5.342;2023-07-13T04:40:30;4.65;;;1.63;;
19280;SDS011;9774;52.034;5.342;2023-07-13T04:42:57;7.28;;;1.50;;
19280;SDS011;9774;52.034;5.342;2023-07-13T04:45:24;5.82;;;1.77;;
19280;SDS011;9774;52.034;5.342;2023-07-13T04:47:52;4.63;;;1.95;;
19280;SDS011;9774;52.034;5.342;2023-07-13T04:50:21;6.78;;;2.08;;
19280;SDS011;9774;52.034;5.342;2023-07-13T04:52:48;8.30;;;2.33;;
19280;SDS011;9774;52.034;5.342;2023-07-13T04:55:16;3.53;;;1.63;;
19280;SDS011;9774;52.034;5.342;2023-07-13T04:57:43;5.30;;;1.58;;
19280;SDS011;9774;52.034;5.342;2023-07-13T05:00:11;4.22;;;1.77;;
19280;SDS011;9774;52.034;5.342;2023-07-13T05:02:42;6.82;;;1.73;;
19280;SDS011;9774;52.034;5.342;2023-07-13T05:05:10;5.78;;;2.05;;
19280;SDS011;9774;52.034;5.342;2023-07-13T05:07:39;5.72;;;2.08;;
19280;SDS011;9774;52.034;5.342;2023-07-13T05:10:07;5.43;;;2.35;;
19280;SDS011;9774;52.034;5.342;2023-07-13T05:12:35;6.47;;;2.08;;
19280;SDS011;9774;52.034;5.342;2023-07-13T05:15:02;8.38;;;2.35;;
19280;SDS011;9774;52.034;5.342;2023-07-13T05:17:31;9.02;;;2.60;;
19280;SDS011;9774;52.034;5.342;2023-07-13T05:19:58;3.10;;;1.85;;
19280;SDS011;9774;52.034;5.342;2023-07-13T05:22:25;4.57;;;2.20;;
19280;SDS011;9774;52.034;5.342;2023-07-13T05:24:54;6.85;;;2.03;;
19280;SDS011;9774;52.034;5.342;2023-07-13T05:27:21;4.78;;;1.85;;
19280;SDS011;9774;52.034;5.342;2023-07-13T05:29:49;8.63;;;2.58;;
19280;SDS011;9774;52.034;5.342;2023-07-13T05:32:17;5.72;;;2.47;;
19280;SDS011;9774;52.034;5.342;2023-07-13T05:34:45;10.38;;;3.30;;
19280;SDS011;9774;52.034;5.342;2023-07-13T05:37:12;6.32;;;2.67;;
19280;SDS011;9774;52.034;5.342;2023-07-13T05:39:39;5.45;;;2.22;;
19280;SDS011;9774;52.034;5.342;2023-07-13T05:42:08;11.00;;;3.20;;
19280;SDS011;9774;52.034;5.342;2023-07-13T05:44:35;6.68;;;3.05;;
19280;SDS011;9774;52.034;5.342;2023-07-13T05:47:03;5.93;;;2.80;;
19280;SDS011;9774;52.034;5.342;2023-07-13T05:49:30;5.40;;;2.92;;
19280;SDS011;9774;52.034;5.342;2023-07-13T05:51:58;10.68;;;2.50;;
19280;SDS011;9774;52.034;5.342;2023-07-13T05:54:25;4.93;;;2.65;;
19280;SDS011;9774;52.034;5.342;2023-07-13T05:56:52;7.72;;;2.97;;
19280;SDS011;9774;52.034;5.342;2023-07-13T05:59:21;8.25;;;2.80;;
19280;SDS011;9774;52.034;5.342;2023-07-13T06:01:49;6.70;;;3.10;;
19280;SDS011;9774;52.034;5.342;2023-07-13T06:04:17;7.55;;;3.05;;
19280;SDS011;9774;52.034;5.342;2023-07-13T06:06:45;5.47;;;3.17;;
19280;SDS011;9774;52.034;5.342;2023-07-13T06:09:12;8.00;;;3.15;;
19280;SDS011;9774;52.034;5.342;2023-07-13T06:11:39;10.32;;;3.38;;
19280;SDS011;9774;52.034;5.342;2023-07-13T06:14:07;8.35;;;4.10;;
19280;SDS011;9774;52.034;5.342;2023-07-13T06:16:35;6.93;;;3.67;;
19280;SDS011;9774;52.034;5.342;2023-07-13T06:19:03;7.95;;;3.58;;
19280;SDS011;9774;52.034;5.342;2023-07-13T06:21:30;19.17;;;4.55;;
19280;SDS011;9774;52.034;5.342;2023-07-13T06:23:57;8.30;;;3.97;;
19280;SDS011;9774;52.034;5.342;2023-07-13T06:26:24;8.52;;;4.20;;
19280;SDS011;9774;52.034;5.342;2023-07-13T06:28:53;6.38;;;3.50;;
19280;SDS011;9774;52.034;5.342;2023-07-13T06:31:20;9.50;;;4.35;;
19280;SDS011;9774;52.034;5.342;2023-07-13T06:33:48;9.95;;;4.47;;
19280;SDS011;9774;52.034;5.342;2023-07-13T06:36:16;13.13;;;4.63;;
19280;SDS011;9774;52.034;5.342;2023-07-13T06:38:43;10.13;;;4.15;;
19280;SDS011;9774;52.034;5.342;2023-07-13T06:41:10;7.95;;;4.85;;
19280;SDS011;9774;52.034;5.342;2023-07-13T06:43:37;9.13;;;4.82;;
19280;SDS011;9774;52.034;5.342;2023-07-13T06:46:05;9.48;;;5.05;;
19280;SDS011;9774;52.034;5.342;2023-07-13T06:48:33;9.90;;;4.88;;
19280;SDS011;9774;52.034;5.342;2023-07-13T06:51:02;8.65;;;4.57;;
19280;SDS011;9774;52.034;5.342;2023-07-13T06:53:30;10.20;;;5.13;;
19280;SDS011;9774;52.034;5.342;2023-07-13T06:55:57;10.90;;;4.38;;
19280;SDS011;9774;52.034;5.342;2023-07-13T06:58:24;7.93;;;4.95;;
19280;SDS011;9774;52.034;5.342;2023-07-13T07:00:52;8.43;;;3.95;;
19280;SDS011;9774;52.034;5.342;2023-07-13T07:03:19;10.00;;;4.25;;
19280;SDS011;9774;52.034;5.342;2023-07-13T07:05:47;9.77;;;4.88;;
19280;SDS011;9774;52.034;5.342;2023-07-13T07:08:15;8.85;;;4.55;;
19280;SDS011;9774;52.034;5.342;2023-07-13T07:10:43;7.78;;;4.45;;
19280;SDS011;9774;52.034;5.342;2023-07-13T07:13:10;10.02;;;4.80;;
19280;SDS011;9774;52.034;5.342;2023-07-13T07:15:37;8.02;;;4.30;;
19280;SDS011;9774;52.034;5.342;2023-07-13T07:18:05;6.55;;;4.43;;
19280;SDS011;9774;52.034;5.342;2023-07-13T07:20:32;8.48;;;4.50;;
19280;SDS011;9774;52.034;5.342;2023-07-13T07:22:59;8.57;;;5.03;;
19280;SDS011;9774;52.034;5.342;2023-07-13T07:25:28;10.30;;;5.18;;
19280;SDS011;9774;52.034;5.342;2023-07-13T07:27:57;6.63;;;4.35;;
19280;SDS011;9774;52.034;5.342;2023-07-13T07:30:24;9.75;;;4.95;;
19280;SDS011;9774;52.034;5.342;2023-07-13T07:32:52;10.57;;;4.47;;
19280;SDS011;9774;52.034;5.342;2023-07-13T07:35:19;8.75;;;4.82;;
19280;SDS011;9774;52.034;5.342;2023-07-13T07:37:46;12.57;;;5.35;;
19280;SDS011;9774;52.034;5.342;2023-07-13T07:40:14;9.30;;;4.55;;
19280;SDS011;9774;52.034;5.342;2023-07-13T07:42:42;16.40;;;6.05;;
19280;SDS011;9774;52.034;5.342;2023-07-13T07:45:10;10.15;;;4.68;;
19280;SDS011;9774;52.034;5.342;2023-07-13T07:47:37;8.98;;;4.53;;
19280;SDS011;9774;52.034;5.342;2023-07-13T07:50:05;5.55;;;4.35;;
19280;SDS011;9774;52.034;5.342;2023-07-13T07:52:32;8.13;;;4.65;;
19280;SDS011;9774;52.034;5.342;2023-07-13T07:55:00;8.57;;;4.90;;
19280;SDS011;9774;52.034;5.342;2023-07-13T07:57:27;6.95;;;4.88;;
19280;SDS011;9774;52.034;5.342;2023-07-13T07:59:56;10.05;;;4.63;;
19280;SDS011;9774;52.034;5.342;2023-07-13T08:02:23;6.55;;;4.90;;
19280;SDS011;9774;52.034;5.342;2023-07-13T08:04:51;11.38;;;5.15;;
19280;SDS011;9774;52.034;5.342;2023-07-13T08:07:19;7.03;;;4.10;;
19280;SDS011;9774;52.034;5.342;2023-07-13T08:09:46;7.03;;;4.28;;
19280;SDS011;9774;52.034;5.342;2023-07-13T08:12:17;4.57;;;4.10;;
19280;SDS011;9774;52.034;5.342;2023-07-13T08:14:44;8.60;;;4.03;;
19280;SDS011;9774;52.034;5.342;2023-07-13T08:17:13;9.38;;;4.32;;
19280;SDS011;9774;52.034;5.342;2023-07-13T08:19:40;4.68;;;3.70;;
19280;SDS011;9774;52.034;5.342;2023-07-13T08:22:07;8.20;;;3.97;;
19280;SDS011;9774;52.034;5.342;2023-07-13T08:24:35;4.22;;;3.15;;
19280;SDS011;9774;52.034;5.342;2023-07-13T08:27:03;6.47;;;3.58;;
19280;SDS011;9774;52.034;5.342;2023-07-13T08:29:31;6.40;;;3.10;;
19280;SDS011;9774;52.034;5.342;2023-07-13T08:31:58;4.43;;;2.60;;
19280;SDS011;9774;52.034;5.342;2023-07-13T08:34:27;3.33;;;2.10;;
19280;SDS011;9774;52.034;5.342;2023-07-13T08:36:54;3.30;;;1.70;;
19280;SDS011;9774;52.034;5.342;2023-07-13T08:39:21;7.38;;;2.38;;
19280;SDS011;9774;52.034;5.342;2023-07-13T08:41:49;4.72;;;2.30;;
19280;SDS011;9774;52.034;5.342;2023-07-13T08:44:27;6.65;;;1.77;;
19280;SDS011;9774;52.034;5.342;2023-07-13T08:47:02;5.50;;;2.50;;
19280;SDS011;9774;52.034;5.342;2023-07-13T08:49:32;5.63;;;1.83;;
19280;SDS011;9774;52.034;5.342;2023-07-13T08:52:01;3.85;;;1.80;;
19280;SDS011;9774;52.034;5.342;2023-07-13T08:54:36;4.28;;;1.75;;
19280;SDS011;9774;52.034;5.342;2023-07-13T08:57:09;5.35;;;2.15;;
19280;SDS011;9774;52.034;5.342;2023-07-13T08:59:40;2.72;;;1.40;;
19280;SDS011;9774;52.034;5.342;2023-07-13T09:02:14;2.13;;;1.92;;
19280;SDS011;9774;52.034;5.342;2023-07-13T09:04:49;3.08;;;1.75;;
19280;SDS011;9774;52.034;5.342;2023-07-13T09:07:30;6.47;;;2.33;;
19280;SDS011;9774;52.034;5.342;2023-07-13T09:10:09;4.35;;;1.83;;
19280;SDS011;9774;52.034;5.342;2023-07-13T09:12:45;6.55;;;2.08;;
19280;SDS011;9774;52.034;5.342;2023-07-13T09:15:23;6.18;;;2.40;;
19280;SDS011;9774;52.034;5.342;2023-07-13T09:17:55;4.63;;;2.00;;
19280;SDS011;9774;52.034;5.342;2023-07-13T09:20:29;3.63;;;2.08;;
19280;SDS011;9774;52.034;5.342;2023-07-13T09:23:01;4.47;;;1.98;;
19280;SDS011;9774;52.034;5.342;2023-07-13T09:25:33;5.50;;;2.13;;
19280;SDS011;9774;52.034;5.342;2023-07-13T09:28:02;3.58;;;1.85;;
19280;SDS011;9774;52.034;5.342;2023-07-13T09:30:38;2.67;;;1.77;;
19280;SDS011;9774;52.034;5.342;2023-07-13T09:33:16;4.70;;;1.90;;
19280;SDS011;9774;52.034;5.342;2023-07-13T09:35:45;4.13;;;1.90;;
19280;SDS011;9774;52.034;5.342;2023-07-13T09:38:13;3.15;;;1.80;;
19280;SDS011;9774;52.034;5.342;2023-07-13T09:40:44;3.08;;;1.70;;
19280;SDS011;9774;52.034;5.342;2023-07-13T09:43:19;3.60;;;1.50;;
19280;SDS011;9774;52.034;5.342;2023-07-13T09:45:47;6.03;;;1.95;;
19280;SDS011;9774;52.034;5.342;2023-07-13T09:48:15;2.88;;;1.27;;
19280;SDS011;9774;52.034;5.342;2023-07-13T09:50:44;2.92;;;1.40;;
19280;SDS011;9774;52.034;5.342;2023-07-13T09:53:13;2.97;;;1.50;;
19280;SDS011;9774;52.034;5.342;2023-07-13T09:55:43;2.97;;;1.55;;
19280;SDS011;9774;52.034;5.342;2023-07-13T09:58:14;3.33;;;1.25;;
19280;SDS011;9774;52.034;5.342;2023-07-13T10:00:54;2.28;;;1.13;;
19280;SDS011;9774;52.034;5.342;2023-07-13T10:03:24;2.15;;;0.93;;
19280;SDS011;9774;52.034;5.342;2023-07-13T10:05:54;4.10;;;1.48;;
19280;SDS011;9774;52.034;5.342;2023-07-13T10:08:27;4.63;;;1.02;;
19280;SDS011;9774;52.034;5.342;2023-07-13T10:10:58;2.38;;;1.23;;
19280;SDS011;9774;52.034;5.342;2023-07-13T10:13:27;1.92;;;1.33;;
19280;SDS011;9774;52.034;5.342;2023-07-13T10:15:59;1.05;;;0.90;;
19280;SDS011;9774;52.034;5.342;2023-07-13T10:18:26;1.70;;;1.10;;
19280;SDS011;9774;52.034;5.342;2023-07-13T10:21:09;2.78;;;1.35;;
19280;SDS011;9774;52.034;5.342;2023-07-13T10:23:39;2.92;;;1.30;;
19280;SDS011;9774;52.034;5.342;2023-07-13T10:26:09;1.48;;;1.17;;
19280;SDS011;9774;52.034;5.342;2023-07-13T10:28:41;2.63;;;1.38;;
19280;SDS011;9774;52.034;5.342;2023-07-13T10:31:13;2.55;;;1.17;;
19280;SDS011;9774;52.034;5.342;2023-07-13T10:33:42;1.85;;;1.02;;
19280;SDS011;9774;52.034;5.342;2023-07-13T10:36:17;1.88;;;1.27;;
19280;SDS011;9774;52.034;5.342;2023-07-13T10:38:50;3.33;;;1.33;;
19280;SDS011;9774;52.034;5.342;2023-07-13T10:41:19;1.77;;;1.10;;
19280;SDS011;9774;52.034;5.342;2023-07-13T10:43:50;1.77;;;0.82;;
19280;SDS011;9774;52.034;5.342;2023-07-13T10:46:21;3.85;;;1.30;;
19280;SDS011;9774;52.034;5.342;2023-07-13T10:48:52;2.72;;;1.17;;
19280;SDS011;9774;52.034;5.342;2023-07-13T10:51:25;2.45;;;1.42;;
19280;SDS011;9774;52.034;5.342;2023-07-13T10:56:44;3.15;;;1.80;;
19280;SDS011;9774;52.034;5.342;2023-07-13T10:59:13;4.07;;;1.58;;
19280;SDS011;9774;52.034;5.342;2023-07-13T11:01:49;2.95;;;1.45;;
19280;SDS011;9774;52.034;5.342;2023-07-13T11:04:21;3.45;;;1.70;;
19280;SDS011;9774;52.034;5.342;2023-07-13T11:06:52;3.55;;;1.77;;
19280;SDS011;9774;52.034;5.342;2023-07-13T11:09:33;4.03;;;1.50;;
19280;SDS011;9774;52.034;5.342;2023-07-13T11:12:08;2.88;;;1.30;;
19280;SDS011;9774;52.034;5.342;2023-07-13T11:15:01;3.00;;;1.50;;
19280;SDS011;9774;52.034;5.342;2023-07-13T11:17:47;3.03;;;1.40;;
19280;SDS011;9774;52.034;5.342;2023-07-13T11:20:37;3.42;;;1.35;;
19280;SDS011;9774;52.034;5.342;2023-07-13T11:23:17;3.05;;;1.60;;
19280;SDS011;9774;52.034;5.342;2023-07-13T11:25:56;1.67;;;1.00;;
19280;SDS011;9774;52.034;5.342;2023-07-13T11:28:25;5.72;;;1.33;;
19280;SDS011;9774;52.034;5.342;2023-07-13T11:31:03;4.60;;;1.75;;
19280;SDS011;9774;52.034;5.342;2023-07-13T11:33:51;2.67;;;1.55;;
19280;SDS011;9774;52.034;5.342;2023-07-13T11:36:24;3.53;;;1.40;;
19280;SDS011;9774;52.034;5.342;2023-07-13T11:39:00;2.60;;;1.35;;
19280;SDS011;9774;52.034;5.342;2023-07-13T11:41:31;2.83;;;1.33;;
19280;SDS011;9774;52.034;5.342;2023-07-13T11:44:14;2.95;;;1.58;;
19280;SDS011;9774;52.034;5.342;2023-07-13T11:46:46;2.00;;;1.73;;
19280;SDS011;9774;52.034;5.342;2023-07-13T11:49:16;3.78;;;1.50;;
19280;SDS011;9774;52.034;5.342;2023-07-13T11:51:44;2.42;;;1.70;;
19280;SDS011;9774;52.034;5.342;2023-07-13T11:54:20;3.03;;;1.45;;
19280;SDS011;9774;52.034;5.342;2023-07-13T11:56:52;3.17;;;1.73;;
19280;SDS011;9774;52.034;5.342;2023-07-13T11:59:22;3.03;;;1.42;;
19280;SDS011;9774;52.034;5.342;2023-07-13T12:01:51;2.33;;;1.50;;
19280;SDS011;9774;52.034;5.342;2023-07-13T12:04:21;1.73;;;1.33;;
19280;SDS011;9774;52.034;5.342;2023-07-13T12:06:57;1.70;;;1.35;;
19280;SDS011;9774;52.034;5.342;2023-07-13T12:09:33;2.58;;;1.40;;
19280;SDS011;9774;52.034;5.342;2023-07-13T12:12:02;2.67;;;1.50;;
19280;SDS011;9774;52.034;5.342;2023-07-13T12:14:33;6.63;;;1.65;;
19280;SDS011;9774;52.034;5.342;2023-07-13T12:17:00;2.80;;;1.67;;
19280;SDS011;9774;52.034;5.342;2023-07-13T12:19:33;2.95;;;1.60;;
19280;SDS011;9774;52.034;5.342;2023-07-13T12:22:01;2.45;;;1.52;;
19280;SDS011;9774;52.034;5.342;2023-07-13T12:24:30;1.55;;;1.20;;
19280;SDS011;9774;52.034;5.342;2023-07-13T12:27:01;1.70;;;1.45;;
19280;SDS011;9774;52.034;5.342;2023-07-13T12:29:31;3.72;;;1.50;;
19280;SDS011;9774;52.034;5.342;2023-07-13T12:31:59;2.38;;;1.35;;
19280;SDS011;9774;52.034;5.342;2023-07-13T12:34:27;4.22;;;1.88;;
19280;SDS011;9774;52.034;5.342;2023-07-13T12:36:54;2.38;;;1.35;;
19280;SDS011;9774;52.034;5.342;2023-07-13T12:39:27;1.85;;;1.17;;
19280;SDS011;9774;52.034;5.342;2023-07-13T12:42:09;1.63;;;1.35;;
19280;SDS011;9774;52.034;5.342;2023-07-13T12:44:44;2.00;;;1.30;;
19280;SDS011;9774;52.034;5.342;2023-07-13T12:47:13;2.65;;;1.40;;
19280;SDS011;9774;52.034;5.342;2023-07-13T12:49:42;2.63;;;1.45;;
19280;SDS011;9774;52.034;5.342;2023-07-13T12:52:15;1.65;;;1.02;;
19280;SDS011;9774;52.034;5.342;2023-07-13T12:54:53;1.90;;;1.23;;
19280;SDS011;9774;52.034;5.342;2023-07-13T12:57:22;2.33;;;1.23;;
19280;SDS011;9774;52.034;5.342;2023-07-13T12:59:51;1.88;;;1.27;;
19280;SDS011;9774;52.034;5.342;2023-07-13T13:02:26;2.10;;;1.30;;
19280;SDS011;9774;52.034;5.342;2023-07-13T13:04:55;2.63;;;1.48;;
19280;SDS011;9774;52.034;5.342;2023-07-13T13:07:23;3.28;;;1.50;;
19280;SDS011;9774;52.034;5.342;2023-07-13T13:09:51;2.45;;;1.08;;
19280;SDS011;9774;52.034;5.342;2023-07-13T13:12:21;2.10;;;1.38;;
19280;SDS011;9774;52.034;5.342;2023-07-13T13:14:51;1.77;;;1.10;;
19280;SDS011;9774;52.034;5.342;2023-07-13T13:17:19;2.38;;;1.35;;
19280;SDS011;9774;52.034;5.342;2023-07-13T13:19:49;1.55;;;0.90;;
19280;SDS011;9774;52.034;5.342;2023-07-13T13:22:19;2.30;;;1.15;;
19280;SDS011;9774;52.034;5.342;2023-07-13T13:24:46;5.40;;;1.50;;
19280;SDS011;9774;52.034;5.342;2023-07-13T13:27:16;1.98;;;1.15;;
19280;SDS011;9774;52.034;5.342;2023-07-13T13:29:45;2.33;;;1.08;;
19280;SDS011;9774;52.034;5.342;2023-07-13T13:32:15;2.58;;;0.90;;
19280;SDS011;9774;52.034;5.342;2023-07-13T13:34:42;2.22;;;1.13;;
19280;SDS011;9774;52.034;5.342;2023-07-13T13:37:15;4.28;;;1.30;;
19280;SDS011;9774;52.034;5.342;2023-07-13T13:39:44;1.60;;;1.27;;
19280;SDS011;9774;52.034;5.342;2023-07-13T13:42:12;2.08;;;1.40;;
19280;SDS011;9774;52.034;5.342;2023-07-13T13:44:40;2.50;;;1.33;;
19280;SDS011;9774;52.034;5.342;2023-07-13T13:47:13;3.47;;;1.38;;
19280;SDS011;9774;52.034;5.342;2023-07-13T13:49:52;1.65;;;1.08;;
19280;SDS011;9774;52.034;5.342;2023-07-13T13:52:20;2.65;;;1.25;;
19280;SDS011;9774;52.034;5.342;2023-07-13T13:54:47;1.65;;;1.15;;
19280;SDS011;9774;52.034;5.342;2023-07-13T13:57:14;1.35;;;1.00;;
19280;SDS011;9774;52.034;5.342;2023-07-13T13:59:43;2.03;;;1.10;;
19280;SDS011;9774;52.034;5.342;2023-07-13T14:02:16;2.60;;;1.52;;
19280;SDS011;9774;52.034;5.342;2023-07-13T14:04:50;1.83;;;1.20;;
19280;SDS011;9774;52.034;5.342;2023-07-13T14:07:21;3.53;;;1.48;;
19280;SDS011;9774;52.034;5.342;2023-07-13T14:09:48;1.70;;;1.38;;
19280;SDS011;9774;52.034;5.342;2023-07-13T14:12:15;1.85;;;1.30;;
19280;SDS011;9774;52.034;5.342;2023-07-13T14:14:44;2.85;;;1.63;;
19280;SDS011;9774;52.034;5.342;2023-07-13T14:17:16;1.80;;;1.17;;
19280;SDS011;9774;52.034;5.342;2023-07-13T14:19:47;1.90;;;1.35;;
19280;SDS011;9774;52.034;5.342;2023-07-13T14:22:21;3.22;;;2.05;;
19280;SDS011;9774;52.034;5.342;2023-07-13T14:24:51;2.28;;;1.23;;
19280;SDS011;9774;52.034;5.342;2023-07-13T14:27:19;1.70;;;1.25;;
19280;SDS011;9774;52.034;5.342;2023-07-13T14:29:48;2.90;;;1.45;;
19280;SDS011;9774;52.034;5.342;2023-07-13T14:32:15;4.15;;;1.20;;
19280;SDS011;9774;52.034;5.342;2023-07-13T14:34:43;1.48;;;1.10;;
19280;SDS011;9774;52.034;5.342;2023-07-13T14:37:11;1.35;;;0.90;;
19280;SDS011;9774;52.034;5.342;2023-07-13T14:39:42;1.77;;;1.25;;
19280;SDS011;9774;52.034;5.342;2023-07-13T14:42:10;1.65;;;1.10;;
19280;SDS011;9774;52.034;5.342;2023-07-13T14:44:38;2.30;;;1.00;;
19280;SDS011;9774;52.034;5.342;2023-07-13T14:47:07;1.40;;;1.20;;
19280;SDS011;9774;52.034;5.342;2023-07-13T14:49:37;1.95;;;1.00;;
19280;SDS011;9774;52.034;5.342;2023-07-13T14:52:09;2.33;;;1.17;;
19280;SDS011;9774;52.034;5.342;2023-07-13T14:54:38;2.03;;;0.80;;
19280;SDS011;9774;52.034;5.342;2023-07-13T14:57:09;1.42;;;1.10;;
19280;SDS011;9774;52.034;5.342;2023-07-13T14:59:39;3.45;;;1.13;;
19280;SDS011;9774;52.034;5.342;2023-07-13T15:02:18;1.88;;;1.10;;
19280;SDS011;9774;52.034;5.342;2023-07-13T15:04:51;1.10;;;0.88;;
19280;SDS011;9774;52.034;5.342;2023-07-13T15:07:19;1.63;;;1.05;;
19280;SDS011;9774;52.034;5.342;2023-07-13T15:09:48;3.17;;;1.25;;
19280;SDS011;9774;52.034;5.342;2023-07-13T15:12:16;4.28;;;1.17;;
19280;SDS011;9774;52.034;5.342;2023-07-13T15:14:44;1.20;;;1.10;;
19280;SDS011;9774;52.034;5.342;2023-07-13T15:17:17;3.53;;;1.17;;
19280;SDS011;9774;52.034;5.342;2023-07-13T15:19:52;1.35;;;0.98;;